sensor_id;sensor_type;location;lat;lon;timestamp;temperature;humidity
13205;DHT22;6667;52.634;9.226;2023-01-01T00:00:59;15.90;99.90
13205;DHT22;6667;52.634;9.226;2023-01-01T00:03:32;15.90;99.90
13205;DHT22;6667;52.634;9.226;2023-01-01T00:05:59;15.90;99.90
13205;DHT22;6667;52.634;9.226;2023-01-01T00:08:30;16.00;99.90
13205;DHT22;6667;52.634;9.226;2023-01-01T00:10:59;15.90;99.90
13205;DHT22;6667;52.634;9.226;2023-01-01T00:13:25;15.90;99.90
13205;DHT22;6667;52.634;9.226;2023-01-01T00:15:51;16.00;99.90
13205;DHT22;6667;52.634;9.226;2023-01-01T00:18:18;15.90;99.90
13205;DHT22;6667;52.634;9.226;2023-01-01T00:20:46;16.00;99.90
13205;DHT22;6667;52.634;9.226;2023-01-01T00:23:12;15.90;99.90
13205;DHT22;6667;52.634;9.226;2023-01-01T00:25:39;15.90;99.90
13205;DHT22;6667;52.634;9.226;2023-01-01T00:28:06;15.90;99.90
13205;DHT22;6667;52.634;9.226;2023-01-01T00:30:34;15.90;99.90
13205;DHT22;6667;52.634;9.226;2023-01-01T00:33:01;16.00;99.90
13205;DHT22;6667;52.634;9.226;2023-01-01T00:35:27;16.00;99.90
13205;DHT22;6667;52.634;9.226;2023-01-01T00:37:55;16.00;99.90
13205;DHT22;6667;52.634;9.226;2023-01-01T00:40:22;15.90;99.90
13205;DHT22;6667;52.634;9.226;2023-01-01T00:42:48;16.00;99.90
13205;DHT22;6667;52.634;9.226;2023-01-01T00:45:15;15.90;99.90
13205;DHT22;6667;52.634;9.226;2023-01-01T00:47:42;15.90;99.90
13205;DHT22;6667;52.634;9.226;2023-01-01T00:50:08;15.90;99.90
13205;DHT22;6667;52.634;9.226;2023-01-01T00:52:35;15.90;99.90
13205;DHT22;6667;52.634;9.226;2023-01-01T00:55:03;15.90;99.90
13205;DHT22;6667;52.634;9.226;2023-01-01T00:57:30;15.80;99.90
13205;DHT22;6667;52.634;9.226;2023-01-01T00:59:57;15.90;99.90
13205;DHT22;6667;52.634;9.226;2023-01-01T01:02:23;16.00;99.90
13205;DHT22;6667;52.634;9.226;2023-01-01T01:04:50;15.90;99.90
13205;DHT22;6667;52.634;9.226;2023-01-01T01:07:16;15.90;99.90
13205;DHT22;6667;52.634;9.226;2023-01-01T01:09:43;15.90;99.90
13205;DHT22;6667;52.634;9.226;2023-01-01T01:12:11;16.00;99.90
13205;DHT22;6667;52.634;9.226;2023-01-01T01:14:38;16.00;99.90
13205;DHT22;6667;52.634;9.226;2023-01-01T01:17:04;16.00;99.90
13205;DHT22;6667;52.634;9.226;2023-01-01T01:19:31;16.00;99.90
13205;DHT22;6667;52.634;9.226;2023-01-01T01:21:57;16.00;99.90
13205;DHT22;6667;52.634;9.226;2023-01-01T01:24:24;15.90;99.90
13205;DHT22;6667;52.634;9.226;2023-01-01T01:26:52;15.90;99.90
13205;DHT22;6667;52.634;9.226;2023-01-01T01:29:20;16.00;99.90
13205;DHT22;6667;52.634;9.226;2023-01-01T01:31:46;15.90;99.90
13205;DHT22;6667;52.634;9.226;2023-01-01T01:34:13;16.00;99.90
13205;DHT22;6667;52.634;9.226;2023-01-01T01:36:40;16.00;99.90
13205;DHT22;6667;52.634;9.226;2023-01-01T01:39:09;15.90;99.90
13205;DHT22;6667;52.634;9.226;2023-01-01T01:41:36;15.90;99.90
13205;DHT22;6667;52.634;9.226;2023-01-01T01:44:05;15.90;99.90
13205;DHT22;6667;52.634;9.226;2023-01-01T01:46:53;15.90;99.90
13205;DHT22;6667;52.634;9.226;2023-01-01T01:49:24;15.90;99.90
13205;DHT22;6667;52.634;9.226;2023-01-01T01:51:53;15.90;99.90
13205;DHT22;6667;52.634;9.226;2023-01-01T01:54:22;16.00;99.90
13205;DHT22;6667;52.634;9.226;2023-01-01T01:56:52;16.10;99.90
13205;DHT22;6667;52.634;9.226;2023-01-01T01:59:20;16.10;99.90
13205;DHT22;6667;52.634;9.226;2023-01-01T02:01:47;16.10;99.90
13205;DHT22;6667;52.634;9.226;2023-01-01T02:04:16;16.10;99.90
13205;DHT22;6667;52.634;9.226;2023-01-01T02:06:43;16.00;99.90
13205;DHT22;6667;52.634;9.226;2023-01-01T02:09:10;16.00;99.90
13205;DHT22;6667;52.634;9.226;2023-01-01T02:11:37;15.90;99.90
13205;DHT22;6667;52.634;9.226;2023-01-01T02:14:04;16.00;99.90
13205;DHT22;6667;52.634;9.226;2023-01-01T02:16:35;15.90;99.90
13205;DHT22;6667;52.634;9.226;2023-01-01T02:19:11;15.90;99.90
13205;DHT22;6667;52.634;9.226;2023-01-01T02:21:51;16.00;99.90
13205;DHT22;6667;52.634;9.226;2023-01-01T02:24:35;15.90;99.90
13205;DHT22;6667;52.634;9.226;2023-01-01T02:27:14;15.90;99.90
13205;DHT22;6667;52.634;9.226;2023-01-01T02:29:47;15.90;99.90
13205;DHT22;6667;52.634;9.226;2023-01-01T02:32:18;15.90;99.90
13205;DHT22;6667;52.634;9.226;2023-01-01T02:34:50;15.90;99.90
13205;DHT22;6667;52.634;9.226;2023-01-01T02:37:19;15.80;99.90
13205;DHT22;6667;52.634;9.226;2023-01-01T02:39:50;15.80;99.90
13205;DHT22;6667;52.634;9.226;2023-01-01T02:42:18;15.80;99.90
13205;DHT22;6667;52.634;9.226;2023-01-01T02:44:50;15.90;99.90
13205;DHT22;6667;52.634;9.226;2023-01-01T02:47:19;15.90;99.90
13205;DHT22;6667;52.634;9.226;2023-01-01T02:49:55;15.90;99.90
13205;DHT22;6667;52.634;9.226;2023-01-01T02:52:43;15.80;99.90
13205;DHT22;6667;52.634;9.226;2023-01-01T02:55:18;15.80;99.90
13205;DHT22;6667;52.634;9.226;2023-01-01T02:57:51;15.70;99.90
13205;DHT22;6667;52.634;9.226;2023-01-01T03:00:20;15.70;99.90
13205;DHT22;6667;52.634;9.226;2023-01-01T03:03:14;15.70;99.90
13205;DHT22;6667;52.634;9.226;2023-01-01T03:05:47;15.80;99.90
13205;DHT22;6667;52.634;9.226;2023-01-01T03:08:38;15.70;99.90
13205;DHT22;6667;52.634;9.226;2023-01-01T03:11:10;15.80;99.90
13205;DHT22;6667;52.634;9.226;2023-01-01T03:13:43;15.80;99.90
13205;DHT22;6667;52.634;9.226;2023-01-01T03:16:18;15.90;99.90
13205;DHT22;6667;52.634;9.226;2023-01-01T03:18:53;15.90;99.90
13205;DHT22;6667;52.634;9.226;2023-01-01T03:21:38;15.80;99.90
13205;DHT22;6667;52.634;9.226;2023-01-01T03:24:06;15.70;99.90
13205;DHT22;6667;52.634;9.226;2023-01-01T03:26:35;15.70;99.90
13205;DHT22;6667;52.634;9.226;2023-01-01T03:29:04;15.60;99.90
13205;DHT22;6667;52.634;9.226;2023-01-01T03:31:37;15.60;99.90
13205;DHT22;6667;52.634;9.226;2023-01-01T03:34:08;15.60;99.90
13205;DHT22;6667;52.634;9.226;2023-01-01T03:36:39;15.60;99.90
13205;DHT22;6667;52.634;9.226;2023-01-01T03:39:11;15.60;99.90
13205;DHT22;6667;52.634;9.226;2023-01-01T03:41:41;15.50;99.90
13205;DHT22;6667;52.634;9.226;2023-01-01T03:44:14;15.50;99.90
13205;DHT22;6667;52.634;9.226;2023-01-01T03:46:45;15.50;99.90
13205;DHT22;6667;52.634;9.226;2023-01-01T03:49:12;15.40;99.90
13205;DHT22;6667;52.634;9.226;2023-01-01T03:51:56;15.40;99.90
13205;DHT22;6667;52.634;9.226;2023-01-01T03:54:32;15.40;99.90
13205;DHT22;6667;52.634;9.226;2023-01-01T03:57:04;15.30;99.90
13205;DHT22;6667;52.634;9.226;2023-01-01T03:59:38;15.30;99.90
13205;DHT22;6667;52.634;9.226;2023-01-01T04:02:09;15.20;99.90
13205;DHT22;6667;52.634;9.226;2023-01-01T04:04:36;15.20;99.90
13205;DHT22;6667;52.634;9.226;2023-01-01T04:07:03;15.20;99.90
13205;DHT22;6667;52.634;9.226;2023-01-01T04:09:32;15.20;99.90
13205;DHT22;6667;52.634;9.226;2023-01-01T04:11:59;15.20;99.90
13205;DHT22;6667;52.634;9.226;2023-01-01T04:14:32;15.20;99.90
13205;DHT22;6667;52.634;9.226;2023-01-01T04:17:00;15.20;99.90
13205;DHT22;6667;52.634;9.226;2023-01-01T04:19:28;15.20;99.90
13205;DHT22;6667;52.634;9.226;2023-01-01T04:21:55;15.10;99.90
13205;DHT22;6667;52.634;9.226;2023-01-01T04:24:22;15.10;99.90
13205;DHT22;6667;52.634;9.226;2023-01-01T04:26:49;15.10;99.90
13205;DHT22;6667;52.634;9.226;2023-01-01T04:29:16;15.10;99.90
13205;DHT22;6667;52.634;9.226;2023-01-01T04:31:43;15.10;99.90
13205;DHT22;6667;52.634;9.226;2023-01-01T04:34:10;15.10;99.90
13205;DHT22;6667;52.634;9.226;2023-01-01T04:36:38;15.10;99.90
13205;DHT22;6667;52.634;9.226;2023-01-01T04:39:05;15.10;99.90
13205;DHT22;6667;52.634;9.226;2023-01-01T04:41:31;15.10;99.90
13205;DHT22;6667;52.634;9.226;2023-01-01T04:43:58;15.10;99.90
13205;DHT22;6667;52.634;9.226;2023-01-01T04:46:25;15.10;99.90
13205;DHT22;6667;52.634;9.226;2023-01-01T04:48:52;15.00;99.90
13205;DHT22;6667;52.634;9.226;2023-01-01T04:51:20;15.00;99.90
13205;DHT22;6667;52.634;9.226;2023-01-01T04:53:48;15.00;99.90
13205;DHT22;6667;52.634;9.226;2023-01-01T04:56:16;15.00;99.90
13205;DHT22;6667;52.634;9.226;2023-01-01T04:58:44;14.90;99.90
13205;DHT22;6667;52.634;9.226;2023-01-01T05:01:15;14.90;99.90
13205;DHT22;6667;52.634;9.226;2023-01-01T05:03:42;15.00;99.90
13205;DHT22;6667;52.634;9.226;2023-01-01T05:06:10;15.00;99.90
13205;DHT22;6667;52.634;9.226;2023-01-01T05:08:39;14.90;99.90
13205;DHT22;6667;52.634;9.226;2023-01-01T05:11:09;14.90;99.90
13205;DHT22;6667;52.634;9.226;2023-01-01T05:13:36;14.90;99.90
13205;DHT22;6667;52.634;9.226;2023-01-01T05:16:04;14.90;99.90
13205;DHT22;6667;52.634;9.226;2023-01-01T05:18:31;14.90;99.90
13205;DHT22;6667;52.634;9.226;2023-01-01T05:20:59;14.90;99.90
13205;DHT22;6667;52.634;9.226;2023-01-01T05:23:26;14.90;99.90
13205;DHT22;6667;52.634;9.226;2023-01-01T05:25:53;14.90;99.90
13205;DHT22;6667;52.634;9.226;2023-01-01T05:28:21;14.90;99.90
13205;DHT22;6667;52.634;9.226;2023-01-01T05:30:49;14.90;99.90
13205;DHT22;6667;52.634;9.226;2023-01-01T05:33:16;14.90;99.90
13205;DHT22;6667;52.634;9.226;2023-01-01T05:35:43;14.80;99.90
13205;DHT22;6667;52.634;9.226;2023-01-01T05:38:09;14.90;99.90
13205;DHT22;6667;52.634;9.226;2023-01-01T05:40:37;14.80;99.90
13205;DHT22;6667;52.634;9.226;2023-01-01T05:43:05;14.80;99.90
13205;DHT22;6667;52.634;9.226;2023-01-01T05:45:32;14.80;99.90
13205;DHT22;6667;52.634;9.226;2023-01-01T05:47:59;14.80;99.90
13205;DHT22;6667;52.634;9.226;2023-01-01T05:50:27;14.80;99.90
13205;DHT22;6667;52.634;9.226;2023-01-01T05:52:53;14.70;99.90
13205;DHT22;6667;52.634;9.226;2023-01-01T05:55:20;14.70;99.90
13205;DHT22;6667;52.634;9.226;2023-01-01T05:57:47;14.70;99.90
13205;DHT22;6667;52.634;9.226;2023-01-01T06:00:14;14.70;99.90
13205;DHT22;6667;52.634;9.226;2023-01-01T06:02:42;14.70;99.90
13205;DHT22;6667;52.634;9.226;2023-01-01T06:05:09;14.70;99.90
13205;DHT22;6667;52.634;9.226;2023-01-01T06:07:35;14.60;99.90
13205;DHT22;6667;52.634;9.226;2023-01-01T06:10:02;14.60;99.90
13205;DHT22;6667;52.634;9.226;2023-01-01T06:12:29;14.60;99.90
13205;DHT22;6667;52.634;9.226;2023-01-01T06:14:56;14.60;99.90
13205;DHT22;6667;52.634;9.226;2023-01-01T06:17:22;14.60;99.90
13205;DHT22;6667;52.634;9.226;2023-01-01T06:19:50;14.50;99.90
13205;DHT22;6667;52.634;9.226;2023-01-01T06:22:17;14.50;99.90
13205;DHT22;6667;52.634;9.226;2023-01-01T06:24:44;14.50;99.90
13205;DHT22;6667;52.634;9.226;2023-01-01T06:27:10;14.50;99.90
13205;DHT22;6667;52.634;9.226;2023-01-01T06:29:37;14.50;99.90
13205;DHT22;6667;52.634;9.226;2023-01-01T06:32:04;14.50;99.90
13205;DHT22;6667;52.634;9.226;2023-01-01T06:34:30;14.60;99.90
13205;DHT22;6667;52.634;9.226;2023-01-01T06:36:58;14.50;99.90
13205;DHT22;6667;52.634;9.226;2023-01-01T06:39:25;14.50;99.90
13205;DHT22;6667;52.634;9.226;2023-01-01T06:41:52;14.50;99.90
13205;DHT22;6667;52.634;9.226;2023-01-01T06:44:18;14.50;99.90
13205;DHT22;6667;52.634;9.226;2023-01-01T06:46:45;14.50;99.90
13205;DHT22;6667;52.634;9.226;2023-01-01T06:49:12;14.50;99.90
13205;DHT22;6667;52.634;9.226;2023-01-01T06:51:40;14.50;99.90
13205;DHT22;6667;52.634;9.226;2023-01-01T06:54:08;14.50;99.90
13205;DHT22;6667;52.634;9.226;2023-01-01T06:56:36;14.40;99.90
13205;DHT22;6667;52.634;9.226;2023-01-01T06:59:03;14.60;99.90
13205;DHT22;6667;52.634;9.226;2023-01-01T07:01:31;14.60;99.90
13205;DHT22;6667;52.634;9.226;2023-01-01T07:04:01;14.60;99.90
13205;DHT22;6667;52.634;9.226;2023-01-01T07:06:29;14.60;99.90
13205;DHT22;6667;52.634;9.226;2023-01-01T07:08:56;14.60;99.90
13205;DHT22;6667;52.634;9.226;2023-01-01T07:11:25;14.60;99.90
13205;DHT22;6667;52.634;9.226;2023-01-01T07:13:52;14.70;99.90
13205;DHT22;6667;52.634;9.226;2023-01-01T07:16:19;14.70;99.90
13205;DHT22;6667;52.634;9.226;2023-01-01T07:18:45;14.70;99.90
13205;DHT22;6667;52.634;9.226;2023-01-01T07:21:37;14.60;99.90
13205;DHT22;6667;52.634;9.226;2023-01-01T07:24:07;14.60;99.90
13205;DHT22;6667;52.634;9.226;2023-01-01T07:26:36;14.70;99.90
13205;DHT22;6667;52.634;9.226;2023-01-01T07:29:04;14.70;99.90
13205;DHT22;6667;52.634;9.226;2023-01-01T07:31:33;14.70;99.90
13205;DHT22;6667;52.634;9.226;2023-01-01T07:33:59;14.70;99.90
13205;DHT22;6667;52.634;9.226;2023-01-01T07:36:26;14.70;99.90
13205;DHT22;6667;52.634;9.226;2023-01-01T07:38:53;14.70;99.90
13205;DHT22;6667;52.634;9.226;2023-01-01T07:41:19;14.70;99.90
13205;DHT22;6667;52.634;9.226;2023-01-01T07:43:47;14.70;99.90
13205;DHT22;6667;52.634;9.226;2023-01-01T07:46:14;14.60;99.90
13205;DHT22;6667;52.634;9.226;2023-01-01T07:48:43;14.60;99.90
13205;DHT22;6667;52.634;9.226;2023-01-01T07:51:10;14.60;99.90
13205;DHT22;6667;52.634;9.226;2023-01-01T07:53:36;14.60;99.90
13205;DHT22;6667;52.634;9.226;2023-01-01T07:56:03;14.60;99.90
13205;DHT22;6667;52.634;9.226;2023-01-01T07:58:30;14.60;99.90
13205;DHT22;6667;52.634;9.226;2023-01-01T08:00:58;14.60;99.90
13205;DHT22;6667;52.634;9.226;2023-01-01T08:03:25;14.60;99.90
13205;DHT22;6667;52.634;9.226;2023-01-01T08:05:52;14.60;99.90
13205;DHT22;6667;52.634;9.226;2023-01-01T08:08:18;14.60;99.90
13205;DHT22;6667;52.634;9.226;2023-01-01T08:10:45;14.70;99.90
13205;DHT22;6667;52.634;9.226;2023-01-01T08:13:11;14.60;99.90
13205;DHT22;6667;52.634;9.226;2023-01-01T08:15:38;14.60;99.90
13205;DHT22;6667;52.634;9.226;2023-01-01T08:18:06;14.60;99.90
13205;DHT22;6667;52.634;9.226;2023-01-01T08:20:33;14.50;99.90
13205;DHT22;6667;52.634;9.226;2023-01-01T08:23:00;14.50;99.90
13205;DHT22;6667;52.634;9.226;2023-01-01T08:25:26;14.60;99.90
13205;DHT22;6667;52.634;9.226;2023-01-01T08:27:53;14.60;99.90
13205;DHT22;6667;52.634;9.226;2023-01-01T08:30:20;14.60;99.90
13205;DHT22;6667;52.634;9.226;2023-01-01T08:32:46;14.60;99.90
13205;DHT22;6667;52.634;9.226;2023-01-01T08:35:14;14.60;99.90
13205;DHT22;6667;52.634;9.226;2023-01-01T08:37:41;14.60;99.90
13205;DHT22;6667;52.634;9.226;2023-01-01T08:40:10;14.60;99.90
13205;DHT22;6667;52.634;9.226;2023-01-01T08:42:37;14.60;99.90
13205;DHT22;6667;52.634;9.226;2023-01-01T08:45:04;14.60;99.90
13205;DHT22;6667;52.634;9.226;2023-01-01T08:47:31;14.50;99.90
13205;DHT22;6667;52.634;9.226;2023-01-01T08:49:58;14.50;99.90
13205;DHT22;6667;52.634;9.226;2023-01-01T08:52:26;14.60;99.90
13205;DHT22;6667;52.634;9.226;2023-01-01T08:54:52;14.60;99.90
13205;DHT22;6667;52.634;9.226;2023-01-01T08:57:19;14.70;99.90
13205;DHT22;6667;52.634;9.226;2023-01-01T08:59:45;14.60;99.90
13205;DHT22;6667;52.634;9.226;2023-01-01T09:02:12;14.60;99.90
13205;DHT22;6667;52.634;9.226;2023-01-01T09:04:39;14.60;99.90
13205;DHT22;6667;52.634;9.226;2023-01-01T09:07:05;14.60;99.90
13205;DHT22;6667;52.634;9.226;2023-01-01T09:09:33;14.50;99.90
13205;DHT22;6667;52.634;9.226;2023-01-01T09:12:00;14.50;99.90
13205;DHT22;6667;52.634;9.226;2023-01-01T09:14:30;14.40;99.90
13205;DHT22;6667;52.634;9.226;2023-01-01T09:16:57;14.30;99.90
13205;DHT22;6667;52.634;9.226;2023-01-01T09:19:24;14.20;99.90
13205;DHT22;6667;52.634;9.226;2023-01-01T09:21:51;14.00;99.90
13205;DHT22;6667;52.634;9.226;2023-01-01T09:24:17;13.80;99.90
13205;DHT22;6667;52.634;9.226;2023-01-01T09:26:45;13.80;99.90
13205;DHT22;6667;52.634;9.226;2023-01-01T09:29:12;13.70;99.90
13205;DHT22;6667;52.634;9.226;2023-01-01T09:31:42;13.60;99.90
13205;DHT22;6667;52.634;9.226;2023-01-01T09:34:09;13.60;99.90
13205;DHT22;6667;52.634;9.226;2023-01-01T09:36:36;13.60;99.90
13205;DHT22;6667;52.634;9.226;2023-01-01T09:39:03;13.60;99.90
13205;DHT22;6667;52.634;9.226;2023-01-01T09:41:48;13.50;99.90
13205;DHT22;6667;52.634;9.226;2023-01-01T09:44:29;13.60;99.90
13205;DHT22;6667;52.634;9.226;2023-01-01T09:46:59;13.50;99.90
13205;DHT22;6667;52.634;9.226;2023-01-01T09:49:32;13.50;99.90
13205;DHT22;6667;52.634;9.226;2023-01-01T09:52:01;13.40;99.90
13205;DHT22;6667;52.634;9.226;2023-01-01T09:54:32;13.40;1.00
13205;DHT22;6667;52.634;9.226;2023-01-01T09:57:04;13.40;1.00
13205;DHT22;6667;52.634;9.226;2023-01-01T09:59:31;13.30;1.00
13205;DHT22;6667;52.634;9.226;2023-01-01T10:02:03;13.30;1.00
13205;DHT22;6667;52.634;9.226;2023-01-01T10:04:47;13.20;99.90
13205;DHT22;6667;52.634;9.226;2023-01-01T10:07:24;13.20;99.90
13205;DHT22;6667;52.634;9.226;2023-01-01T10:10:01;13.10;99.90
13205;DHT22;6667;52.634;9.226;2023-01-01T10:12:35;13.00;99.90
13205;DHT22;6667;52.634;9.226;2023-01-01T10:15:12;13.00;99.90
13205;DHT22;6667;52.634;9.226;2023-01-01T10:17:43;13.00;99.90
13205;DHT22;6667;52.634;9.226;2023-01-01T10:20:16;13.00;99.90
13205;DHT22;6667;52.634;9.226;2023-01-01T10:22:46;12.90;99.90
13205;DHT22;6667;52.634;9.226;2023-01-01T10:25:17;12.90;99.90
13205;DHT22;6667;52.634;9.226;2023-01-01T10:27:48;12.80;99.90
13205;DHT22;6667;52.634;9.226;2023-01-01T10:30:18;12.80;99.90
13205;DHT22;6667;52.634;9.226;2023-01-01T10:32:46;12.70;99.90
13205;DHT22;6667;52.634;9.226;2023-01-01T10:35:15;12.70;99.90
13205;DHT22;6667;52.634;9.226;2023-01-01T10:37:42;12.60;99.90
13205;DHT22;6667;52.634;9.226;2023-01-01T10:40:14;12.60;99.90
13205;DHT22;6667;52.634;9.226;2023-01-01T10:42:41;12.60;99.90
13205;DHT22;6667;52.634;9.226;2023-01-01T10:45:13;12.60;99.90
13205;DHT22;6667;52.634;9.226;2023-01-01T10:48:13;12.60;99.90
13205;DHT22;6667;52.634;9.226;2023-01-01T10:50:45;12.60;99.90
13205;DHT22;6667;52.634;9.226;2023-01-01T10:53:28;12.60;99.90
13205;DHT22;6667;52.634;9.226;2023-01-01T10:56:00;12.60;99.90
13205;DHT22;6667;52.634;9.226;2023-01-01T10:58:36;12.60;99.90
13205;DHT22;6667;52.634;9.226;2023-01-01T11:01:05;12.60;99.90
13205;DHT22;6667;52.634;9.226;2023-01-01T11:03:33;12.60;99.90
13205;DHT22;6667;52.634;9.226;2023-01-01T11:06:02;12.60;99.90
13205;DHT22;6667;52.634;9.226;2023-01-01T11:08:31;12.60;99.90
13205;DHT22;6667;52.634;9.226;2023-01-01T11:11:00;12.60;99.90
13205;DHT22;6667;52.634;9.226;2023-01-01T11:13:28;12.60;99.90
13205;DHT22;6667;52.634;9.226;2023-01-01T11:15:55;12.70;99.90
13205;DHT22;6667;52.634;9.226;2023-01-01T11:18:26;12.60;99.90
13205;DHT22;6667;52.634;9.226;2023-01-01T11:21:00;12.70;99.90
13205;DHT22;6667;52.634;9.226;2023-01-01T11:23:30;12.60;99.90
13205;DHT22;6667;52.634;9.226;2023-01-01T11:26:03;12.60;1.00
13205;DHT22;6667;52.634;9.226;2023-01-01T11:28:32;12.60;1.00
13205;DHT22;6667;52.634;9.226;2023-01-01T11:31:06;12.60;1.00
13205;DHT22;6667;52.634;9.226;2023-01-01T11:33:43;12.60;1.00
13205;DHT22;6667;52.634;9.226;2023-01-01T11:36:10;12.70;1.00
13205;DHT22;6667;52.634;9.226;2023-01-01T11:38:38;12.70;1.00
13205;DHT22;6667;52.634;9.226;2023-01-01T11:41:05;12.70;1.00
13205;DHT22;6667;52.634;9.226;2023-01-01T11:43:38;12.70;1.00
13205;DHT22;6667;52.634;9.226;2023-01-01T11:46:08;12.70;1.00
13205;DHT22;6667;52.634;9.226;2023-01-01T11:48:38;12.70;1.00
13205;DHT22;6667;52.634;9.226;2023-01-01T11:51:09;12.70;1.00
13205;DHT22;6667;52.634;9.226;2023-01-01T11:53:38;12.80;1.00
13205;DHT22;6667;52.634;9.226;2023-01-01T11:56:11;12.80;1.00
13205;DHT22;6667;52.634;9.226;2023-01-01T11:58:45;12.80;1.00
13205;DHT22;6667;52.634;9.226;2023-01-01T12:01:18;12.80;1.00
13205;DHT22;6667;52.634;9.226;2023-01-01T12:03:50;12.80;1.00
13205;DHT22;6667;52.634;9.226;2023-01-01T12:06:25;12.80;1.00
13205;DHT22;6667;52.634;9.226;2023-01-01T12:08:59;12.90;1.00
13205;DHT22;6667;52.634;9.226;2023-01-01T12:11:31;12.90;1.00
13205;DHT22;6667;52.634;9.226;2023-01-01T12:14:04;12.90;1.00
13205;DHT22;6667;52.634;9.226;2023-01-01T12:16:40;12.90;1.00
13205;DHT22;6667;52.634;9.226;2023-01-01T12:19:14;12.90;1.00
13205;DHT22;6667;52.634;9.226;2023-01-01T12:21:47;12.80;1.00
13205;DHT22;6667;52.634;9.226;2023-01-01T12:24:15;12.80;1.00
13205;DHT22;6667;52.634;9.226;2023-01-01T12:26:53;12.70;52.00
13205;DHT22;6667;52.634;9.226;2023-01-01T12:29:34;12.60;98.40
13205;DHT22;6667;52.634;9.226;2023-01-01T12:32:07;12.60;99.90
13205;DHT22;6667;52.634;9.226;2023-01-01T12:34:40;12.50;99.90
13205;DHT22;6667;52.634;9.226;2023-01-01T12:37:14;12.40;99.90
13205;DHT22;6667;52.634;9.226;2023-01-01T12:43:01;12.30;1.00
13205;DHT22;6667;52.634;9.226;2023-01-01T12:45:49;12.30;1.00
13205;DHT22;6667;52.634;9.226;2023-01-01T12:48:33;12.20;1.00
13205;DHT22;6667;52.634;9.226;2023-01-01T12:51:10;12.20;35.90
13205;DHT22;6667;52.634;9.226;2023-01-01T12:53:48;12.20;99.90
13205;DHT22;6667;52.634;9.226;2023-01-01T12:56:22;12.10;99.90
13205;DHT22;6667;52.634;9.226;2023-01-01T12:58:56;12.10;99.90
13205;DHT22;6667;52.634;9.226;2023-01-01T13:01:26;12.00;99.90
13205;DHT22;6667;52.634;9.226;2023-01-01T13:03:57;12.10;1.00
13205;DHT22;6667;52.634;9.226;2023-01-01T13:06:30;12.00;1.00
13205;DHT22;6667;52.634;9.226;2023-01-01T13:09:04;12.00;1.00
13205;DHT22;6667;52.634;9.226;2023-01-01T13:11:33;12.00;1.00
13205;DHT22;6667;52.634;9.226;2023-01-01T13:14:00;12.00;1.00
13205;DHT22;6667;52.634;9.226;2023-01-01T13:16:37;12.00;99.90
13205;DHT22;6667;52.634;9.226;2023-01-01T13:19:06;12.00;99.90
13205;DHT22;6667;52.634;9.226;2023-01-01T13:21:35;12.00;1.00
13205;DHT22;6667;52.634;9.226;2023-01-01T13:24:18;12.00;1.00
13205;DHT22;6667;52.634;9.226;2023-01-01T13:26:45;12.00;1.00
13205;DHT22;6667;52.634;9.226;2023-01-01T13:29:43;12.00;1.00
13205;DHT22;6667;52.634;9.226;2023-01-01T13:32:13;12.00;99.90
13205;DHT22;6667;52.634;9.226;2023-01-01T13:37:47;12.00;99.90
13205;DHT22;6667;52.634;9.226;2023-01-01T13:40:31;12.00;99.90
13205;DHT22;6667;52.634;9.226;2023-01-01T13:43:15;12.00;1.00
13205;DHT22;6667;52.634;9.226;2023-01-01T13:45:45;12.00;1.00
13205;DHT22;6667;52.634;9.226;2023-01-01T13:48:26;12.00;1.00
13205;DHT22;6667;52.634;9.226;2023-01-01T13:54:39;12.10;1.00
13205;DHT22;6667;52.634;9.226;2023-01-01T13:57:27;12.10;1.00
13205;DHT22;6667;52.634;9.226;2023-01-01T14:00:04;12.00;1.00
13205;DHT22;6667;52.634;9.226;2023-01-01T14:02:41;12.00;1.00
13205;DHT22;6667;52.634;9.226;2023-01-01T14:05:14;12.00;1.00
13205;DHT22;6667;52.634;9.226;2023-01-01T14:07:44;12.00;1.00
13205;DHT22;6667;52.634;9.226;2023-01-01T14:10:22;12.00;1.00
13205;DHT22;6667;52.634;9.226;2023-01-01T14:12:51;12.00;1.00
13205;DHT22;6667;52.634;9.226;2023-01-01T14:15:24;11.90;1.00
13205;DHT22;6667;52.634;9.226;2023-01-01T14:17:53;11.90;24.30
13205;DHT22;6667;52.634;9.226;2023-01-01T14:20:23;11.90;99.90
13205;DHT22;6667;52.634;9.226;2023-01-01T14:22:53;11.90;99.90
13205;DHT22;6667;52.634;9.226;2023-01-01T14:25:24;11.90;1.00
13205;DHT22;6667;52.634;9.226;2023-01-01T14:27:55;11.90;1.00
13205;DHT22;6667;52.634;9.226;2023-01-01T14:30:23;11.80;1.00
13205;DHT22;6667;52.634;9.226;2023-01-01T14:32:56;11.80;1.00
13205;DHT22;6667;52.634;9.226;2023-01-01T14:35:24;11.70;99.90
13205;DHT22;6667;52.634;9.226;2023-01-01T14:37:51;11.70;99.90
13205;DHT22;6667;52.634;9.226;2023-01-01T14:40:19;11.60;1.00
13205;DHT22;6667;52.634;9.226;2023-01-01T14:42:56;11.60;99.90
13205;DHT22;6667;52.634;9.226;2023-01-01T14:45:23;11.50;1.00
13205;DHT22;6667;52.634;9.226;2023-01-01T14:47:52;11.50;99.90
13205;DHT22;6667;52.634;9.226;2023-01-01T14:50:25;11.50;99.90
13205;DHT22;6667;52.634;9.226;2023-01-01T14:52:56;11.40;99.90
13205;DHT22;6667;52.634;9.226;2023-01-01T14:55:32;11.40;99.90
13205;DHT22;6667;52.634;9.226;2023-01-01T14:58:01;11.30;99.90
13205;DHT22;6667;52.634;9.226;2023-01-01T15:00:30;11.30;1.00
13205;DHT22;6667;52.634;9.226;2023-01-01T15:03:04;11.20;99.90
13205;DHT22;6667;52.634;9.226;2023-01-01T15:05:33;11.20;1.00
13205;DHT22;6667;52.634;9.226;2023-01-01T15:08:01;11.20;14.50
13205;DHT22;6667;52.634;9.226;2023-01-01T15:10:30;11.10;1.00
13205;DHT22;6667;52.634;9.226;2023-01-01T15:12:58;11.00;99.90
13205;DHT22;6667;52.634;9.226;2023-01-01T15:15:40;11.00;99.90
13205;DHT22;6667;52.634;9.226;2023-01-01T15:18:40;11.00;1.00
13205;DHT22;6667;52.634;9.226;2023-01-01T15:21:14;10.90;41.50
13205;DHT22;6667;52.634;9.226;2023-01-01T15:23:51;10.90;5.80
13205;DHT22;6667;52.634;9.226;2023-01-01T15:26:26;10.80;1.00
13205;DHT22;6667;52.634;9.226;2023-01-01T15:28:54;10.80;99.90
13205;DHT22;6667;52.634;9.226;2023-01-01T15:31:22;10.70;99.90
13205;DHT22;6667;52.634;9.226;2023-01-01T15:33:58;10.70;99.90
13205;DHT22;6667;52.634;9.226;2023-01-01T15:36:25;10.70;99.90
13205;DHT22;6667;52.634;9.226;2023-01-01T15:38:52;10.60;1.00
13205;DHT22;6667;52.634;9.226;2023-01-01T15:41:22;10.60;91.80
13205;DHT22;6667;52.634;9.226;2023-01-01T15:43:49;10.50;99.90
13205;DHT22;6667;52.634;9.226;2023-01-01T15:46:18;10.50;99.90
13205;DHT22;6667;52.634;9.226;2023-01-01T15:48:49;10.50;99.90
13205;DHT22;6667;52.634;9.226;2023-01-01T15:51:17;10.50;99.90
13205;DHT22;6667;52.634;9.226;2023-01-01T15:53:51;10.40;99.90
13205;DHT22;6667;52.634;9.226;2023-01-01T15:56:20;10.40;99.90
13205;DHT22;6667;52.634;9.226;2023-01-01T15:58:52;10.40;99.90
13205;DHT22;6667;52.634;9.226;2023-01-01T16:01:22;10.30;99.90
13205;DHT22;6667;52.634;9.226;2023-01-01T16:04:00;10.30;99.90
13205;DHT22;6667;52.634;9.226;2023-01-01T16:06:27;10.20;99.90
13205;DHT22;6667;52.634;9.226;2023-01-01T16:08:54;10.20;99.90
13205;DHT22;6667;52.634;9.226;2023-01-01T16:11:20;10.10;99.90
13205;DHT22;6667;52.634;9.226;2023-01-01T16:13:47;10.10;99.90
13205;DHT22;6667;52.634;9.226;2023-01-01T16:16:23;10.10;99.90
13205;DHT22;6667;52.634;9.226;2023-01-01T16:18:51;10.00;99.90